createdAt,value
2022-12-29T00:01:11.311Z,7.13
2022-12-29T00:03:39.644Z,7.40
2022-12-29T00:06:09.226Z,8.27
2022-12-29T00:08:46.027Z,8.40
2022-12-29T00:11:16.091Z,8.23
2022-12-29T00:14:02.440Z,8.50
2022-12-29T00:16:31.759Z,8.10
2022-12-29T00:19:00.150Z,8.93
2022-12-29T00:21:56.239Z,9.03
2022-12-29T00:24:42.317Z,9.60
2022-12-29T00:27:31.569Z,9.93
2022-12-29T00:30:17.392Z,9.47
2022-12-29T00:33:03.832Z,9.70
2022-12-29T00:35:35.281Z,9.83
2022-12-29T00:38:27.260Z,9.70
2022-12-29T00:41:12.495Z,10.20
2022-12-29T00:43:57.806Z,9.97
2022-12-29T00:46:25.928Z,10.93
2022-12-29T00:49:11.402Z,10.63
2022-12-29T00:51:39.688Z,9.70
2022-12-29T00:54:09.355Z,10.43
2022-12-29T00:56:37.801Z,10.23
2022-12-29T00:59:07.421Z,9.63
2022-12-29T01:01:36.593Z,9.67
2022-12-29T01:04:05.355Z,9.70
2022-12-29T01:06:34.157Z,8.63
2022-12-29T01:09:20.131Z,7.83
2022-12-29T01:11:51.027Z,7.90
2022-12-29T01:14:20.122Z,7.10
2022-12-29T01:16:48.806Z,8.00
2022-12-29T01:19:19.999Z,7.73
2022-12-29T01:21:48.378Z,7.43
2022-12-29T01:24:17.565Z,7.60
2022-12-29T01:26:46.615Z,7.33
2022-12-29T01:29:16.247Z,8.43
2022-12-29T01:31:47.224Z,7.20
2022-12-29T01:34:15.766Z,6.70
2022-12-29T01:36:44.478Z,6.87
2022-12-29T01:39:14.357Z,6.53
2022-12-29T01:41:42.773Z,6.37
2022-12-29T01:44:48.436Z,6.33
2022-12-29T01:47:25.510Z,5.83
2022-12-29T01:49:57.078Z,5.50
2022-12-29T01:52:29.174Z,4.70
2022-12-29T01:54:59.382Z,4.83
2022-12-29T01:57:30.027Z,4.50
2022-12-29T02:00:02.524Z,4.60
2022-12-29T02:02:45.296Z,5.07
2022-12-29T02:05:18.221Z,4.77
2022-12-29T02:07:47.480Z,4.57
2022-12-29T02:10:16.027Z,4.73
2022-12-29T02:12:44.450Z,4.33
2022-12-29T02:15:12.918Z,4.50
2022-12-29T02:17:55.724Z,4.40
2022-12-29T02:20:52.702Z,4.43
2022-12-29T02:23:40.304Z,4.57
2022-12-29T02:26:37.186Z,4.83
2022-12-29T02:29:27.127Z,4.63
2022-12-29T02:32:03.223Z,4.63
2022-12-29T02:34:42.540Z,4.30
2022-12-29T02:37:19.770Z,4.77
2022-12-29T02:39:59.169Z,4.10
2022-12-29T02:42:37.854Z,4.80
2022-12-29T02:45:11.591Z,4.80
2022-12-29T02:47:50.820Z,5.03
2022-12-29T02:50:25.363Z,5.57
2022-12-29T02:52:59.599Z,5.17
2022-12-29T02:55:27.175Z,5.50
2022-12-29T02:58:19.833Z,5.23
2022-12-29T03:01:04.323Z,5.40
2022-12-29T03:03:48.925Z,5.07
2022-12-29T03:06:30.749Z,5.00
2022-12-29T03:09:05.251Z,5.20
2022-12-29T03:12:11.483Z,4.97
2022-12-29T03:15:09.169Z,5.00
2022-12-29T03:17:47.485Z,5.33
2022-12-29T03:20:22.312Z,4.90
2022-12-29T03:22:54.935Z,4.93
2022-12-29T03:25:28.362Z,5.00
2022-12-29T03:28:01.890Z,5.23
2022-12-29T03:30:33.553Z,5.10
2022-12-29T03:33:05.981Z,5.40
2022-12-29T03:35:45.344Z,5.80
2022-12-29T03:38:19.473Z,5.87
2022-12-29T03:40:52.557Z,6.43
2022-12-29T03:43:22.167Z,6.67
2022-12-29T03:45:50.718Z,6.53
2022-12-29T03:48:19.678Z,5.87
2022-12-29T03:50:50.123Z,6.50
2022-12-29T03:53:19.233Z,5.97
2022-12-29T03:55:47.507Z,6.50
2022-12-29T03:58:15.669Z,6.50
2022-12-29T04:01:00.795Z,5.70
2022-12-29T04:03:29.391Z,5.80
2022-12-29T04:06:00.843Z,4.90
2022-12-29T04:08:34.025Z,5.20
2022-12-29T04:11:02.211Z,5.33
2022-12-29T04:13:30.460Z,4.83
2022-12-29T04:15:58.769Z,5.43
2022-12-29T04:18:26.909Z,5.73
2022-12-29T04:21:04.642Z,6.00
2022-12-29T04:23:38.527Z,5.70
2022-12-29T04:26:10.584Z,6.10
2022-12-29T04:29:04.745Z,5.80
2022-12-29T04:31:42.954Z,6.00
2022-12-29T04:34:11.169Z,5.47
2022-12-29T04:36:41.224Z,6.33
2022-12-29T04:39:10.710Z,6.40
2022-12-29T04:41:40.723Z,5.90
2022-12-29T04:44:13.147Z,6.30
2022-12-29T04:46:57.241Z,7.10
2022-12-29T04:49:44.874Z,6.50
2022-12-29T04:52:47.999Z,6.40
2022-12-29T04:55:17.777Z,6.80
2022-12-29T04:57:46.946Z,6.80
2022-12-29T05:00:19.560Z,7.00
2022-12-29T05:02:48.555Z,6.67
2022-12-29T05:05:17.605Z,7.17
2022-12-29T05:07:49.538Z,7.17
2022-12-29T05:10:20.010Z,6.60
2022-12-29T05:12:50.307Z,6.40
2022-12-29T05:15:19.251Z,6.17
2022-12-29T05:17:47.420Z,6.07
2022-12-29T05:20:15.579Z,6.07
2022-12-29T05:22:44.018Z,5.70
2022-12-29T05:25:12.280Z,6.20
2022-12-29T05:27:53.904Z,6.07
2022-12-29T05:30:40.751Z,5.23
2022-12-29T05:33:08.893Z,5.23
2022-12-29T05:35:37.074Z,5.60
2022-12-29T05:38:05.207Z,6.77
2022-12-29T05:40:33.479Z,7.37
2022-12-29T05:43:07.413Z,6.87
2022-12-29T05:45:57.268Z,7.30
2022-12-29T05:48:37.634Z,7.13
2022-12-29T05:51:19.919Z,7.67
2022-12-29T05:53:50.177Z,6.60
2022-12-29T05:56:19.148Z,6.67
2022-12-29T05:58:55.297Z,6.87
2022-12-29T06:01:24.462Z,6.30
2022-12-29T06:03:52.740Z,6.40
2022-12-29T06:06:22.213Z,5.70
2022-12-29T06:08:50.455Z,6.50
2022-12-29T06:11:20.848Z,6.03
2022-12-29T06:13:57.558Z,5.97
2022-12-29T06:16:26.316Z,6.53
2022-12-29T06:18:58.659Z,5.40
2022-12-29T06:21:26.808Z,5.27
2022-12-29T06:23:54.849Z,5.50
2022-12-29T06:26:23.009Z,5.83
2022-12-29T06:28:51.206Z,5.47
2022-12-29T06:31:20.858Z,5.53
2022-12-29T06:33:50.398Z,4.70
2022-12-29T06:36:19.011Z,6.13
2022-12-29T06:38:47.259Z,5.60
2022-12-29T06:41:15.348Z,5.00
2022-12-29T06:44:09.839Z,4.87
2022-12-29T06:46:52.873Z,5.20
2022-12-29T06:49:21.041Z,5.10
2022-12-29T06:51:49.148Z,5.30
2022-12-29T06:54:17.290Z,4.60
2022-12-29T06:56:45.343Z,4.83
2022-12-29T06:59:13.626Z,4.60
2022-12-29T07:01:42.413Z,5.03
2022-12-29T07:04:11.943Z,4.63
2022-12-29T07:06:41.701Z,4.90
2022-12-29T07:09:10.413Z,5.23
2022-12-29T07:11:38.759Z,5.07
2022-12-29T07:14:06.907Z,5.50
2022-12-29T07:16:35.468Z,4.60
2022-12-29T07:19:03.612Z,5.00
2022-12-29T07:21:33.173Z,4.73
2022-12-29T07:24:01.261Z,4.27
2022-12-29T07:26:35.983Z,5.80
2022-12-29T07:29:04.536Z,6.53
2022-12-29T07:31:33.353Z,5.90
2022-12-29T07:34:01.486Z,5.23
2022-12-29T07:36:34.402Z,5.47
2022-12-29T07:39:04.938Z,5.10
2022-12-29T07:41:33.127Z,6.33
2022-12-29T07:44:03.767Z,5.20
2022-12-29T07:46:56.460Z,5.03
2022-12-29T07:49:25.893Z,5.27
2022-12-29T07:51:54.260Z,5.83
2022-12-29T07:54:24.390Z,5.00
2022-12-29T07:56:53.104Z,4.60
2022-12-29T07:59:21.205Z,4.67
2022-12-29T08:01:49.403Z,4.30
2022-12-29T08:04:17.679Z,3.90
2022-12-29T08:06:46.567Z,4.20
2022-12-29T08:09:21.583Z,4.17
2022-12-29T08:11:51.367Z,4.57
2022-12-29T08:14:19.876Z,4.60
2022-12-29T08:16:48.100Z,4.57
2022-12-29T08:19:16.488Z,4.60
2022-12-29T08:21:44.553Z,4.67
2022-12-29T08:24:12.720Z,4.40
2022-12-29T08:26:40.979Z,4.90
2022-12-29T08:29:10.448Z,4.93
2022-12-29T08:31:38.796Z,5.00
2022-12-29T08:34:06.938Z,5.20
2022-12-29T08:36:35.126Z,4.30
2022-12-29T08:39:03.283Z,5.00
2022-12-29T08:41:31.381Z,4.77
2022-12-29T08:43:59.443Z,4.70
2022-12-29T08:46:29.065Z,6.93
2022-12-29T08:48:57.315Z,6.10
2022-12-29T08:51:25.607Z,4.93
2022-12-29T08:53:54.014Z,5.03
2022-12-29T08:56:23.393Z,5.30
2022-12-29T08:58:55.954Z,5.27
2022-12-29T09:01:24.908Z,5.97
2022-12-29T09:06:44.017Z,6.30
2022-12-29T09:09:12.352Z,6.33
2022-12-29T09:11:41.082Z,5.80
2022-12-29T09:14:09.121Z,6.50
2022-12-29T09:16:37.916Z,6.50
2022-12-29T09:19:07.687Z,6.50
2022-12-29T09:21:35.837Z,7.33
2022-12-29T09:24:04.148Z,7.40
2022-12-29T09:26:32.172Z,6.70
2022-12-29T09:29:00.228Z,6.90
2022-12-29T09:31:28.320Z,6.27
2022-12-29T09:33:56.418Z,7.60
2022-12-29T09:36:25.877Z,6.73
2022-12-29T09:38:55.417Z,7.27
2022-12-29T09:41:28.885Z,6.63
2022-12-29T09:44:14.979Z,7.00
2022-12-29T09:46:48.661Z,6.77
2022-12-29T09:49:25.628Z,7.10
2022-12-29T09:51:57.934Z,7.20
2022-12-29T09:54:42.458Z,6.83
2022-12-29T09:57:20.616Z,7.47
2022-12-29T09:59:52.893Z,11.27
2022-12-29T10:02:33.397Z,7.60
2022-12-29T10:05:01.957Z,8.23
2022-12-29T10:07:40.922Z,7.80
2022-12-29T10:10:24.729Z,7.73
2022-12-29T10:13:02.877Z,8.03
2022-12-29T10:15:46.049Z,7.97
2022-12-29T10:18:34.671Z,8.30
2022-12-29T10:21:10.762Z,8.10
2022-12-29T10:23:44.730Z,8.73
2022-12-29T10:26:17.205Z,8.90
2022-12-29T10:28:51.595Z,8.87
2022-12-29T10:31:23.935Z,8.53
2022-12-29T10:33:57.708Z,8.37
2022-12-29T10:36:33.133Z,8.07
2022-12-29T10:39:12.579Z,8.37
2022-12-29T10:41:46.174Z,7.83
2022-12-29T10:44:18.441Z,8.03
2022-12-29T10:46:54.935Z,8.27
2022-12-29T10:49:23.441Z,8.00
2022-12-29T10:51:53.518Z,7.97
2022-12-29T10:54:28.976Z,7.20
2022-12-29T10:57:02.511Z,7.40
2022-12-29T10:59:33.175Z,7.80
2022-12-29T11:02:16.795Z,7.00
2022-12-29T11:04:55.506Z,6.37
2022-12-29T11:07:27.275Z,6.07
2022-12-29T11:09:57.106Z,6.27
2022-12-29T11:12:28.443Z,6.37
2022-12-29T11:15:16.253Z,6.20
2022-12-29T11:17:47.254Z,6.37
2022-12-29T11:20:36.553Z,6.43
2022-12-29T11:23:06.804Z,5.67
2022-12-29T11:25:36.375Z,5.97
2022-12-29T11:28:17.524Z,5.90
2022-12-29T11:30:45.653Z,6.17
2022-12-29T11:33:13.865Z,6.20
2022-12-29T11:35:44.539Z,6.80
2022-12-29T11:38:23.051Z,6.57
2022-12-29T11:40:52.843Z,6.17
2022-12-29T11:43:28.873Z,6.53
2022-12-29T11:45:57.681Z,6.60
2022-12-29T11:48:31.208Z,6.33
2022-12-29T11:51:01.477Z,6.43
2022-12-29T11:53:34.562Z,6.70
2022-12-29T11:56:07.691Z,6.40
2022-12-29T11:58:37.828Z,5.90
2022-12-29T12:01:09.294Z,6.60
2022-12-29T12:03:40.944Z,6.73
2022-12-29T12:06:16.673Z,5.60
2022-12-29T12:08:50.964Z,6.40
2022-12-29T12:11:25.424Z,5.90
2022-12-29T12:14:01.925Z,5.40
2022-12-29T12:16:45.680Z,5.40
2022-12-29T12:19:22.376Z,5.30
2022-12-29T12:21:58.257Z,5.70
2022-12-29T12:24:38.540Z,4.73
2022-12-29T12:27:15.129Z,6.27
2022-12-29T12:29:49.317Z,5.50
2022-12-29T12:32:22.876Z,5.53
2022-12-29T12:34:52.512Z,5.00
2022-12-29T12:37:50.967Z,5.33
2022-12-29T12:40:41.764Z,5.40
2022-12-29T12:43:34.184Z,4.87
2022-12-29T12:46:18.043Z,5.60
2022-12-29T12:49:04.808Z,5.70
2022-12-29T12:51:42.538Z,4.53
2022-12-29T12:54:25.248Z,5.10
2022-12-29T12:57:04.855Z,5.03
2022-12-29T12:59:44.541Z,5.20
2022-12-29T13:02:26.748Z,6.57
2022-12-29T13:05:31.425Z,5.60
2022-12-29T13:08:26.837Z,5.60
2022-12-29T13:11:01.913Z,6.17
2022-12-29T13:13:49.622Z,5.80
2022-12-29T13:16:29.591Z,5.87
2022-12-29T13:19:05.900Z,5.73
2022-12-29T13:21:57.372Z,6.33
2022-12-29T13:24:34.115Z,6.50
2022-12-29T13:27:08.830Z,6.60
2022-12-29T13:29:42.713Z,6.30
2022-12-29T13:32:26.230Z,6.10
2022-12-29T13:35:05.261Z,6.70
2022-12-29T13:37:40.510Z,5.97
2022-12-29T13:40:17.529Z,5.57
2022-12-29T13:42:46.732Z,5.63
2022-12-29T13:45:18.997Z,6.40
2022-12-29T13:47:53.434Z,6.27
2022-12-29T13:50:24.100Z,6.50
2022-12-29T13:53:02.215Z,6.13
2022-12-29T13:55:37.884Z,6.57
2022-12-29T13:58:12.029Z,7.00
2022-12-29T14:00:50.188Z,7.03
2022-12-29T14:03:36.760Z,6.50
2022-12-29T14:06:15.100Z,6.67
2022-12-29T14:08:43.472Z,6.43
2022-12-29T14:11:13.109Z,6.50
2022-12-29T14:13:51.304Z,6.27
2022-12-29T14:16:32.007Z,6.23
2022-12-29T14:19:12.664Z,6.50
2022-12-29T14:21:41.787Z,5.97
2022-12-29T14:24:44.451Z,6.23
2022-12-29T14:28:04.163Z,7.13
2022-12-29T14:31:03.786Z,6.57
2022-12-29T14:33:33.638Z,6.40
2022-12-29T14:36:27.094Z,6.10
2022-12-29T14:38:55.329Z,6.70
2022-12-29T14:41:31.285Z,6.63
2022-12-29T14:44:19.989Z,6.60
2022-12-29T14:46:56.722Z,6.07
2022-12-29T14:49:27.633Z,5.90
2022-12-29T14:52:08.470Z,6.63
2022-12-29T14:54:50.389Z,6.40
2022-12-29T14:57:39.002Z,6.70
2022-12-29T15:00:16.848Z,6.53
2022-12-29T15:02:49.893Z,6.47
2022-12-29T15:05:32.768Z,6.70
2022-12-29T15:08:04.613Z,7.00
2022-12-29T15:10:40.678Z,6.30
2022-12-29T15:13:18.035Z,7.23
2022-12-29T15:15:46.338Z,6.60
2022-12-29T15:18:16.910Z,6.80
2022-12-29T15:20:45.356Z,7.33
2022-12-29T15:23:16.624Z,7.20
2022-12-29T15:25:52.460Z,7.47
2022-12-29T15:28:23.726Z,7.23
2022-12-29T15:30:57.229Z,7.07
2022-12-29T15:33:28.357Z,6.90
2022-12-29T15:35:58.727Z,7.27
2022-12-29T15:38:34.891Z,7.20
2022-12-29T15:41:17.720Z,7.93
2022-12-29T15:43:55.532Z,7.00
2022-12-29T15:46:24.128Z,7.57
2022-12-29T15:48:52.709Z,7.60
2022-12-29T15:51:25.751Z,8.00
2022-12-29T15:53:56.384Z,7.97
2022-12-29T15:56:24.611Z,7.87
2022-12-29T15:58:54.260Z,8.10
2022-12-29T16:01:29.799Z,8.00
2022-12-29T16:04:00.415Z,8.20
2022-12-29T16:06:31.784Z,8.13
2022-12-29T16:09:03.741Z,7.47
2022-12-29T16:11:37.115Z,8.23
2022-12-29T16:14:10.719Z,8.30
2022-12-29T16:16:41.734Z,8.33
2022-12-29T16:19:16.124Z,9.00
2022-12-29T16:21:45.238Z,9.13
2022-12-29T16:24:25.688Z,9.10
2022-12-29T16:27:11.032Z,9.33
2022-12-29T16:29:39.415Z,9.07
2022-12-29T16:32:26.898Z,8.97
2022-12-29T16:35:11.787Z,8.83
2022-12-29T16:37:40.403Z,9.27
2022-12-29T16:40:42.162Z,9.70
2022-12-29T16:43:22.505Z,9.27
2022-12-29T16:46:19.461Z,9.93
2022-12-29T16:48:53.776Z,9.70
2022-12-29T16:51:31.833Z,9.17
2022-12-29T16:54:01.232Z,10.13
2022-12-29T16:56:33.561Z,9.80
2022-12-29T16:59:06.982Z,9.93
2022-12-29T17:01:38.203Z,9.77
2022-12-29T17:04:10.079Z,9.83
2022-12-29T17:06:38.300Z,10.63
2022-12-29T17:09:22.549Z,10.27
2022-12-29T17:12:02.900Z,10.70
2022-12-29T17:14:43.064Z,11.03
2022-12-29T17:17:17.594Z,10.93
2022-12-29T17:19:49.591Z,10.60
2022-12-29T17:22:20.917Z,11.00
2022-12-29T17:24:49.126Z,11.13
2022-12-29T17:27:29.915Z,11.43
2022-12-29T17:30:01.153Z,12.00
2022-12-29T17:32:29.382Z,11.47
2022-12-29T17:34:57.460Z,11.97
2022-12-29T17:37:35.435Z,11.33
2022-12-29T17:40:04.680Z,11.80
2022-12-29T17:42:34.914Z,11.83
2022-12-29T17:45:03.741Z,12.60
2022-12-29T17:47:31.842Z,12.03
2022-12-29T17:49:59.960Z,11.50
2022-12-29T17:52:28.127Z,12.03
2022-12-29T17:54:56.571Z,12.07
2022-12-29T17:57:24.739Z,12.10
2022-12-29T17:59:54.171Z,11.63
2022-12-29T18:02:29.332Z,12.63
2022-12-29T18:04:58.108Z,12.67
2022-12-29T18:07:35.385Z,12.13
2022-12-29T18:10:04.061Z,13.23
2022-12-29T18:12:39.294Z,16.00
2022-12-29T18:15:18.902Z,21.50
2022-12-29T18:17:47.582Z,20.63
2022-12-29T18:20:16.848Z,23.83
2022-12-29T18:22:44.990Z,29.87
2022-12-29T18:25:26.339Z,35.80
2022-12-29T18:27:54.628Z,27.57
2022-12-29T18:30:24.868Z,18.43
2022-12-29T18:32:53.028Z,18.43
2022-12-29T18:35:27.843Z,15.60
2022-12-29T18:37:55.939Z,15.30
2022-12-29T18:40:24.118Z,14.23
2022-12-29T18:42:52.279Z,13.60
2022-12-29T18:45:22.126Z,13.40
2022-12-29T18:47:54.912Z,13.77
2022-12-29T18:50:23.352Z,13.13
2022-12-29T18:52:51.566Z,13.13
2022-12-29T18:55:24.647Z,13.50
2022-12-29T18:57:53.603Z,13.37
2022-12-29T19:00:23.992Z,14.83
2022-12-29T19:02:54.315Z,14.50
2022-12-29T19:05:25.844Z,14.30
2022-12-29T19:07:55.001Z,13.50
2022-12-29T19:10:24.481Z,14.73
2022-12-29T19:12:53.551Z,14.83
2022-12-29T19:15:25.363Z,13.80
2022-12-29T19:18:32.764Z,14.53
2022-12-29T19:20:49.020Z,14.40
2022-12-29T19:23:19.448Z,15.07
2022-12-29T19:25:48.852Z,14.77
2022-12-29T19:28:20.238Z,14.73
2022-12-29T19:30:52.289Z,14.03
2022-12-29T19:33:23.609Z,13.40
2022-12-29T19:35:52.753Z,12.83
2022-12-29T19:38:21.227Z,12.27
2022-12-29T19:40:51.536Z,14.13
2022-12-29T19:43:20.090Z,14.23
2022-12-29T19:45:48.304Z,16.20
2022-12-29T19:48:19.700Z,16.83
2022-12-29T19:50:49.336Z,15.30
2022-12-29T19:53:17.463Z,13.20
2022-12-29T19:55:46.264Z,11.77
2022-12-29T19:58:14.785Z,13.83
2022-12-29T20:00:43.847Z,15.23
2022-12-29T20:03:12.681Z,15.23
2022-12-29T20:05:41.696Z,14.97
2022-12-29T20:08:11.141Z,14.07
2022-12-29T20:10:39.331Z,13.43
2022-12-29T20:13:07.590Z,16.60
2022-12-29T20:15:35.769Z,17.80
2022-12-29T20:18:13.682Z,17.10
2022-12-29T20:20:42.929Z,16.57
2022-12-29T20:23:12.516Z,16.63
2022-12-29T20:25:45.605Z,16.33
2022-12-29T20:28:15.666Z,17.40
2022-12-29T20:30:44.387Z,16.90
2022-12-29T20:33:12.637Z,15.37
2022-12-29T20:35:40.703Z,16.63
2022-12-29T20:38:08.844Z,16.00
2022-12-29T20:40:45.934Z,15.47
2022-12-29T20:43:16.613Z,14.47
2022-12-29T20:45:45.096Z,14.23
2022-12-29T20:48:13.265Z,15.03
2022-12-29T20:50:41.505Z,15.73
2022-12-29T20:53:09.741Z,16.80
2022-12-29T20:55:41.266Z,16.13
2022-12-29T20:58:25.395Z,18.23
2022-12-29T21:00:54.526Z,19.13
2022-12-29T21:03:23.018Z,20.40
2022-12-29T21:05:53.107Z,19.33
2022-12-29T21:08:22.115Z,19.70
2022-12-29T21:10:52.535Z,19.53
2022-12-29T21:13:21.153Z,18.00
2022-12-29T21:15:49.540Z,16.83
2022-12-29T21:18:17.884Z,17.67
2022-12-29T21:20:45.923Z,16.90
2022-12-29T21:23:14.077Z,18.40
2022-12-29T21:25:44.929Z,18.23
2022-12-29T21:28:14.432Z,20.60
2022-12-29T21:30:43.140Z,21.20
2022-12-29T21:33:11.319Z,21.43
2022-12-29T21:35:40.106Z,20.37
2022-12-29T21:38:08.873Z,19.60
2022-12-29T21:40:38.543Z,20.23
2022-12-29T21:43:07.547Z,21.17
2022-12-29T21:45:36.074Z,20.73
2022-12-29T21:48:25.187Z,21.23
2022-12-29T21:51:12.597Z,20.67
2022-12-29T21:53:42.766Z,19.60
2022-12-29T21:56:12.884Z,19.13
2022-12-29T21:59:00.398Z,17.83
2022-12-29T22:01:49.563Z,16.20
2022-12-29T22:04:37.973Z,15.37
2022-12-29T22:07:26.143Z,16.57
2022-12-29T22:10:11.758Z,14.90
2022-12-29T22:12:58.954Z,15.43
2022-12-29T22:15:29.694Z,18.37
2022-12-29T22:17:59.449Z,17.03
2022-12-29T22:20:32.344Z,18.83
2022-12-29T22:23:01.056Z,22.00
2022-12-29T22:25:29.257Z,22.97
2022-12-29T22:27:59.901Z,19.17
2022-12-29T22:30:28.546Z,18.13
2022-12-29T22:32:59.639Z,16.80
2022-12-29T22:35:27.861Z,16.90
2022-12-29T22:37:56.055Z,17.23
2022-12-29T22:40:24.409Z,19.23
2022-12-29T22:42:52.527Z,20.70
2022-12-29T22:45:20.647Z,23.03
2022-12-29T22:47:48.799Z,23.03
2022-12-29T22:50:18.458Z,24.27
2022-12-29T22:52:46.546Z,23.43
2022-12-29T22:55:14.678Z,22.60
2022-12-29T22:57:42.865Z,20.27
2022-12-29T23:00:12.124Z,22.60
2022-12-29T23:02:40.415Z,18.77
2022-12-29T23:05:09.631Z,17.47
2022-12-29T23:07:39.119Z,16.77
2022-12-29T23:10:08.136Z,15.63
2022-12-29T23:12:36.265Z,21.57
2022-12-29T23:15:04.785Z,27.17
2022-12-29T23:17:33.185Z,28.97
2022-12-29T23:20:01.252Z,28.27
2022-12-29T23:22:29.358Z,25.10
2022-12-29T23:24:59.084Z,21.53
2022-12-29T23:27:27.247Z,20.53
2022-12-29T23:29:55.335Z,23.73
2022-12-29T23:32:23.460Z,23.17
2022-12-29T23:34:51.533Z,22.60
2022-12-29T23:37:19.678Z,24.73
2022-12-29T23:39:47.811Z,23.10
2022-12-29T23:42:17.272Z,18.33
2022-12-29T23:44:45.397Z,19.10
2022-12-29T23:47:13.721Z,19.47
2022-12-29T23:49:41.832Z,19.27
2022-12-29T23:52:09.928Z,21.50
2022-12-29T23:54:37.984Z,19.00
2022-12-29T23:57:06.087Z,17.73
2022-12-29T23:59:35.540Z,19.27
